CMA CGM Homere — MQBL6 — position and weather

sailwx.info

Track history (hours):
 
Tides and Currents Weather Stations Pressure Air Temp Water Temp Dewpoint Dewpoint Depression Visibility Wind Speed Wind Dir Waves Ship Positions

CMA CGM Homere

Last reported at 2016-May-23 21:12 UTC. Time now 2016-Jun-01 05:31 UTC.
Position N 30°23' W 009°42'.
Warning: this ship's position is 8 days out of date.

Length 170 m; draft 6 m.

Type: Cargo ship. MMSI: 235052314.

Date/timePositionNaut miles runAvg speedWind from/ knotsBaromVisibWave heightAir tempDewpointWater temp
2016-May-23 21:12N 30°23' W 009°42'0 0.0
2016-May-23 20:33N 30°23' W 009°42'0 0.0
2016-May-23 19:33N 30°23' W 009°42'0 0.0
2016-May-23 18:15N 30°23' W 009°42'0 0.1
2016-May-23 15:23N 30°22' W 009°42'0 0.1
2016-May-23 14:04N 30°22' W 009°42'11 0.8
2016-May-22 23:12N 30°21' W 009°55'710.2
2016-May-22 22:31N 30°19' W 010°02'34 8.5
2016-May-22 18:33N 30°15' W 010°41'109 9.0
2016-May-22 06:31N 29°56' W 012°45'8 8.2
2016-May-22 05:31N 29°55' W 012°54'38 8.8
2016-May-22 01:10N 29°49' W 013°37'7 8.6
2016-May-22 00:24N 29°47' W 013°45'10 8.6
2016-May-21 23:15N 29°46' W 013°56'6 9.1
2016-May-21 22:33N 29°45' W 014°03'9 9.2
2016-May-21 21:32N 29°43' W 014°14'10 9.2
2016-May-21 20:29N 29°41' W 014°25'10 9.6
2016-May-21 19:25N 29°40' W 014°36'9 9.9
2016-May-21 18:34N 29°39' W 014°46'10 9.9
2016-May-21 17:33N 29°37' W 014°57'10 9.7
2016-May-21 16:32N 29°35' W 015°08'10 9.8
2016-May-21 15:33N 29°34' W 015°19'78 9.7
2016-May-21 07:34N 29°20' W 016°47'10 9.6
2016-May-21 06:31N 29°19' W 016°59'  
Track history (hours):
 
Tides and Currents Weather Stations Pressure Air Temp Water Temp Dewpoint Dewpoint Depression Visibility Wind Speed Wind Dir Waves Ship Positions

CMA CGM Homere

Last reported at 2016-May-23 21:12 UTC. Time now 2016-Jun-01 05:31 UTC.
Position N 30°23' W 009°42'.
Warning: this ship's position is 8 days out of date.

Length 170 m; draft 6 m.

Type: Cargo ship. MMSI: 235052314.

Date/timePositionNaut miles runAvg speedWind from/ knotsBaromVisibWave heightAir tempDewpointWater temp
2016-May-23 21:12N 30°23' W 009°42'0 0.0
2016-May-23 20:33N 30°23' W 009°42'0 0.0
2016-May-23 19:33N 30°23' W 009°42'0 0.0
2016-May-23 18:15N 30°23' W 009°42'0 0.1
2016-May-23 15:23N 30°22' W 009°42'0 0.1
2016-May-23 14:04N 30°22' W 009°42'11 0.8
2016-May-22 23:12N 30°21' W 009°55'710.2
2016-May-22 22:31N 30°19' W 010°02'34 8.5
2016-May-22 18:33N 30°15' W 010°41'109 9.0
2016-May-22 06:31N 29°56' W 012°45'8 8.2
2016-May-22 05:31N 29°55' W 012°54'38 8.8
2016-May-22 01:10N 29°49' W 013°37'7 8.6
2016-May-22 00:24N 29°47' W 013°45'10 8.6
2016-May-21 23:15N 29°46' W 013°56'6 9.1
2016-May-21 22:33N 29°45' W 014°03'9 9.2
2016-May-21 21:32N 29°43' W 014°14'10 9.2
2016-May-21 20:29N 29°41' W 014°25'10 9.6
2016-May-21 19:25N 29°40' W 014°36'9 9.9
2016-May-21 18:34N 29°39' W 014°46'10 9.9
2016-May-21 17:33N 29°37' W 014°57'10 9.7
2016-May-21 16:32N 29°35' W 015°08'10 9.8
2016-May-21 15:33N 29°34' W 015°19'78 9.7
2016-May-21 07:34N 29°20' W 016°47'10 9.6
2016-May-21 06:31N 29°19' W 016°59'  

Dump ship's entire track history